Latest Coastal Weather Observations for Cape Nelson

IDV60701

Issued at 7:52 pm EDT Thursday 21 October 2021 (issued every 10 minutes, with the page automatically refreshed every 10 minutes)

About coastal observations | Map of coastal stations | Coastal observations for VIC | Marine services | Other Formats
Station Details ID: 090184 Name: CAPE NELSON LIGHTHOUSE Lat: -38.43 Lon: 141.54 Height: 45.4 m
Data from the previous 72 hours. | See also: Recent months at Cape Nelson
Date/Time
EDT
Wind Sea
Height
m
Swell Vis
km
Cloud Weather Temp
°C
Press
MSL
hPa
Rain since
9am
mm
Dir  Spd
kts
Gust
kts
Height
m
Period
s
Dir
21/07:30pm W 11 14 - - - - - - - 15.3 1013.2 0.0
21/07:00pm W 13 16 - - - - - - - 15.6 1012.8 0.0
21/06:30pm W 13 17 - - - - - - - 15.8 1012.6 0.0
21/06:00pm W 12 15 - - - - - - - 16.0 1012.3 0.0
21/05:30pm W 10 15 - - - - - - - 16.6 1012.3 0.0
21/05:00pm W 12 16 - - - - - - - 16.5 1011.9 0.0
21/04:30pm W 8 12 - - - - - - - 17.5 1011.8 0.0
21/04:00pm W 9 12 - - - - - - - 17.0 1011.8 0.0
21/03:30pm W 9 13 - - - - - - - 17.8 1011.7 0.0
21/03:00pm W 9 12 - - - - - - - 17.8 1011.5 0.0
21/02:30pm W 10 13 - - - - - - - 16.8 1011.7 0.0
21/02:00pm W 10 13 - - - - - - - 17.6 1011.7 0.0
21/01:30pm WSW 7 10 - - - - - - - 16.6 1011.7 0.0
21/01:00pm WSW 9 11 - - - - - - - 17.3 1011.8 0.0
21/12:30pm WSW 7 10 - - - - - - - 18.1 1011.6 0.0
21/12:00pm W 8 10 - - - - - - - 18.1 1011.6 0.0
21/11:30am W 9 13 - - - - - - - 17.9 1011.6 0.0
21/11:00am W 9 13 - - - - - - - 18.6 1011.4 0.0
21/10:30am W 9 13 - - - - - - - 18.4 1011.7 0.0
21/10:00am WNW 10 14 - - - - - - - 18.5 1011.4 0.0
21/09:30am WNW 10 13 - - - - - - - 17.5 1011.4 0.0
21/09:00am WNW 10 14 - - - - - - - 18.1 1011.4 0.0
21/08:30am WNW 13 17 - - - - - - - 16.8 1011.2 0.0
21/08:00am WNW 13 18 - - - - - - - 16.7 1010.7 0.0
21/07:30am NW 12 17 - - - - - - - 16.7 1010.5 0.0
21/07:00am NNW 11 17 - - - - - - - 18.6 1010.1 0.0
21/06:30am N 12 17 - - - - - - - 18.7 1009.4 0.0
21/06:00am N 11 19 - - - - - - - 19.2 1008.9 0.0
21/05:30am N 13 18 - - - - - - - 19.1 1008.7 0.0
21/05:00am N 11 17 - - - - - - - 18.6 1008.7 0.0
21/04:30am NNE 12 17 - - - - - - - 18.3 1008.9 0.0
21/04:00am NNE 9 14 - - - - - - - 17.2 1008.7 0.0
21/03:30am NNE 10 15 - - - - - - - 17.8 1008.9 0.0
21/03:00am NE 11 15 - - - - - - - 16.8 1009.3 0.0
21/02:30am NNE 12 19 - - - - - - - 17.4 1009.4 0.0
21/02:00am NNE 11 16 - - - - - - - 17.5 1009.7 0.0
21/01:30am NE 14 19 - - - - - - - 16.7 1009.9 0.0
21/01:00am NE 10 13 - - - - - - - 16.8 1010.2 0.0
21/12:30am NE 10 14 - - - - - - - 16.9 1010.4 0.0
21/12:00am NE 11 15 - - - - - - - 16.8 1010.5 0.0
 
Date/Time
EDT
Wind Sea
Height
m
Swell Vis
km
Cloud Weather Temp
°C
Press
MSL
hPa
Rain since
9am
mm
Dir  Spd
kts
Gust
kts
Height
m
Period
s
Dir
20/11:30pm NNE 12 17 - - - - - - - 17.7 1011.0 0.0
20/11:00pm NNE 15 19 - - - - - - - 17.3 1010.6 0.0
20/10:30pm NE 13 18 - - - - - - - 17.8 1010.8 0.0
20/10:00pm NE 12 17 - - - - - - - 18.5 1011.1 0.0
20/09:30pm NE 10 13 - - - - - - - 18.1 1011.1 0.0
20/09:00pm NE 7 10 - - - - - - - 17.9 1011.9 0.0
20/08:30pm NE 7 9 - - - - - - - 18.2 1012.2 0.0
20/08:00pm NE 7 9 - - - - - - - 18.5 1012.1 0.0
20/07:30pm NE 6 7 - - - - - - - 18.6 1012.2 0.0
20/07:00pm NE 6 9 - - - - - - - 18.9 1011.9 0.0
20/06:30pm NE 7 8 - - - - - - - 19.2 1011.8 0.0
20/06:00pm NNE 3 5 - - - - - - - 18.8 1012.2 0.0
20/05:30pm ENE 5 8 - - - - - - - 17.4 1012.2 0.0
20/05:00pm ENE 8 11 - - - - - - - 16.7 1012.5 0.0
20/04:30pm ENE 6 9 - - - - - - - 16.6 1012.8 0.0
20/04:00pm E 10 15 - - - - - - - 16.6 1013.1 0.0
20/03:30pm E 9 13 - - - - - - - 17.4 1013.7 0.0
20/03:00pm E 12 15 - - - - - - - 17.1 1014.4 0.0
20/02:30pm E 11 16 - - - - - - - 16.9 1015.0 0.0
20/02:00pm E 12 17 - - - - - - - 17.1 1015.6 0.0
20/01:30pm E 12 16 - - - - - - - 16.5 1016.0 0.0
20/01:00pm ENE 13 17 - - - - - - - 16.7 1016.6 0.0
20/12:30pm ENE 11 17 - - - - - - - 16.7 1017.3 0.0
20/12:00pm ENE 11 16 - - - - - - - 16.6 1017.9 0.0
20/11:30am ENE 13 17 - - - - - - - 16.0 1018.7 0.0
20/11:00am NE 10 14 - - - - - - - 15.7 1019.0 0.0
20/10:30am NE 11 15 - - - - - - - 14.3 1019.2 0.0
20/10:00am NE 12 17 - - - - - - - 13.7 1019.2 0.0
20/09:30am NE 13 18 - - - - - - - 13.7 1019.5 0.0
20/09:00am NE 12 18 - - - - - - - 12.9 1019.6 0.0
20/08:30am NE 13 18 - - - - - - - 11.9 1019.7 0.0
20/08:00am NE 12 19 - - - - - - - 12.2 1019.9 0.0
20/07:30am NE 14 20 - - - - - - - 11.8 1019.6 0.0
20/07:00am NE 12 18 - - - - - - - 11.2 1019.4 0.0
20/06:30am NE 15 22 - - - - - - - 11.3 1019.9 0.0
20/06:00am NE 16 23 - - - - - - - 11.6 1020.4 0.0
20/05:30am ENE 15 21 - - - - - - - 11.6 1020.8 0.0
20/05:00am NE 13 18 - - - - - - - 11.5 1020.9 0.0
20/04:30am NE 13 22 - - - - - - - 11.8 1021.4 0.0
20/04:00am NE 11 16 - - - - - - - 11.2 1021.5 0.0
20/03:30am ENE 17 24 - - - - - - - 11.3 1021.3 0.0
20/03:00am ENE 15 22 - - - - - - - 11.3 1021.4 0.0
20/02:30am ENE 14 19 - - - - - - - 11.3 1021.8 0.0
20/02:00am ENE 12 19 - - - - - - - 11.3 1022.4 0.0
20/01:30am ENE 13 17 - - - - - - - 11.5 1022.9 0.0
20/01:00am NE 11 16 - - - - - - - 11.7 1023.5 0.0
20/12:30am NE 9 15 - - - - - - - 12.0 1023.7 0.0
20/12:00am NE 12 18 - - - - - - - 12.6 1023.7 0.0
 
Date/Time
EDT
Wind Sea
Height
m
Swell Vis
km
Cloud Weather Temp
°C
Press
MSL
hPa
Rain since
9am
mm
Dir  Spd
kts
Gust
kts
Height
m
Period
s
Dir
19/11:30pm E 12 17 - - - - - - - 12.8 1024.4 0.0
19/11:00pm E 14 17 - - - - - - - 12.5 1024.2 0.0
19/10:30pm E 14 18 - - - - - - - 12.4 1023.9 0.0
19/10:00pm E 10 15 - - - - - - - 12.2 1024.3 0.0
19/09:30pm E 12 17 - - - - - - - 11.9 1024.5 0.0
19/09:00pm E 13 17 - - - - - - - 11.9 1024.1 0.0
19/08:30pm E 11 15 - - - - - - - 11.8 1024.6 0.0
19/08:00pm E 12 16 - - - - - - - 11.6 1024.2 0.0
19/07:30pm E 14 17 - - - - - - - 11.8 1023.7 0.0
19/07:00pm E 10 14 - - - - - - - 12.0 1024.2 0.0
19/06:30pm ESE 8 13 - - - - - - - 12.5 1024.3 0.0
19/06:00pm ESE 8 11 - - - - - - - 12.8 1024.6 0.0
19/05:30pm ESE 8 13 - - - - - - - 13.1 1024.3 0.0
19/05:00pm E 10 14 - - - - - - - 13.2 1024.1 0.0
19/04:30pm E 11 16 - - - - - - - 13.5 1024.1 0.0
19/04:00pm E 12 15 - - - - - - - 13.9 1024.1 0.0
19/03:30pm E 10 14 - - - - - - - 13.9 1024.6 0.0
19/03:00pm ESE 8 12 - - - - - - - 14.5 1025.1 0.0
19/02:30pm ESE 8 11 - - - - - - - 14.4 1025.1 0.0
19/02:00pm E 11 16 - - - - - - - 14.1 1025.0 0.0
19/01:30pm ESE 10 15 - - - - - - - 14.1 1025.0 0.0
19/01:00pm ESE 9 14 - - - - - - - 14.1 1024.9 0.0
19/12:30pm ESE 11 16 - - - - - - - 14.0 1025.0 0.0
19/12:00pm ESE 11 15 - - - - - - - 13.9 1025.2 0.0
19/11:30am E 11 18 - - - - - - - 13.9 1025.1 0.0
19/11:00am ESE 12 18 - - - - - - - 13.5 1024.8 0.0
19/10:30am ESE 12 17 - - - - - - - 12.7 1024.5 0.0
19/10:00am ESE 12 19 - - - - - - - 13.0 1024.4 0.0
19/09:30am ESE 13 20 - - - - - - - 13.0 1023.8 0.0
19/09:00am ESE 12 17 - - - - - - - 12.0 1023.7 0.0
19/08:30am ESE 11 17 - - - - - - - 12.0 1023.7 0.0
19/08:00am ESE 11 17 - - - - - - - 11.3 1023.4 0.0
19/07:30am ESE 10 18 - - - - - - - 11.0 1023.3 0.0
19/07:00am SE 10 13 - - - - - - - 11.5 1022.9 0.0
19/06:30am SE 13 16 - - - - - - - 11.1 1022.6 0.0
19/06:00am SE 8 13 - - - - - - - 11.0 1022.1 0.0
19/05:30am SE 11 15 - - - - - - - 11.4 1021.7 0.0
19/05:00am SE 13 17 - - - - - - - 11.3 1021.3 0.0
19/04:30am SE 13 16 - - - - - - - 11.5 1020.8 0.0
19/04:00am SE 11 15 - - - - - - - 11.7 1020.9 0.0
19/03:30am SSE 11 15 - - - - - - - 11.5 1020.7 0.0
19/03:00am SE 13 16 - - - - - - - 11.5 1020.6 0.0
19/02:30am SE 13 17 - - - - - - - 11.7 1020.7 0.0
19/02:00am SE 14 17 - - - - - - - 11.7 1020.8 0.0
19/01:30am SSE 9 13 - - - - - - - 11.8 1020.9 0.0
19/01:00am SSE 9 13 - - - - - - - 11.6 1020.7 0.0
19/12:30am SSE 10 16 - - - - - - - 11.7 1020.7 0.0
19/12:00am SSE 9 12 - - - - - - - 12.1 1020.5 0.0
 
Date/Time
EDT
Wind Sea
Height
m
Swell Vis
km
Cloud Weather Temp
°C
Press
MSL
hPa
Rain since
9am
mm
Dir  Spd
kts
Gust
kts
Height
m
Period
s
Dir
18/11:30pm SSE 11 14 - - - - - - - 11.6 1020.4 0.0
18/11:00pm SSE 9 17 - - - - - - - 12.1 1020.3 0.0
18/10:30pm SSE 11 17 - - - - - - - 11.8 1020.1 0.0
18/10:00pm SSE 9 15 - - - - - - - 11.8 1019.8 0.0
18/09:30pm SSE 8 14 - - - - - - - 11.9 1019.3 0.0
18/09:00pm SSE 14 18 - - - - - - - 12.1 1018.9 0.0
18/08:30pm SE 8 13 - - - - - - - 12.0 1018.5 0.0
18/08:00pm SSE 10 17 - - - - - - - 12.1 1018.1 0.0

Other formats

Comma delimited format used in spreadsheet applications
http://www.bom.gov.au/fwo/IDV60701/IDV60701.94826.axf

JavaScript Object Notation format (JSON) in row-major order
http://www.bom.gov.au/fwo/IDV60701/IDV60701.94826.json

Data quality

Most of these data are generated automatically and are frequently updated. Quality checks on data are not normally performed. It is possible for incorrect values to appear. Refer to information at About Latest Weather Observations and please check the disclaimer before using these data.